Samedan Airport LSZS

Flugplatz Daten

Name: Samedan Airport

Ident: LSZS

Lat: 46,53409958

Long: 9,884110451

Platzhöhe: 5600 ft

IataCode: SMV

City:

Metar

2021/08/02 09:20
LSZS 020920Z 04004KT 340V100 9999 FEW050 SCT060 BKN085 11/05 Q1018 RMK I TL170

Taf

Webcams

Samedan Flugplatz
Gewünschte Webcam nicht vorhanden? Dann fügen Sie eine hinzu. Sie wird dann so schnell wie möglich freigeschaltet
Url: Title: